Time;durP1;ratioP1;P1;durP2;ratioP2;P2;SDS_P1;SDS_P2;PMS_P1;PMS_P2;Temp;Humidity;BMP_temperature;BMP_pressure;BME280_temperature;BME280_humidity;BME280_pressure;Samples;Min_cycle;Max_cycle;Signal;HPM_P1;HPM_P2
2022/07/29 00:01:53;;;;;;;7.97;5.47;;;;;;;;;;6148863;23;20193;-90
2022/07/29 00:05:01;;;;;;;8.70;6.00;;;;;;;;;;6149182;22;20210;-90
2022/07/29 00:08:08;;;;;;;12.43;5.45;;;;;;;;;;6151960;23;20187;-90
2022/07/29 00:11:13;;;;;;;10.38;5.50;;;;;;;;;;6146419;23;20172;-92
2022/07/29 00:14:19;;;;;;;12.27;5.80;;;;;;;;;;6149093;22;20169;-89
2022/07/29 00:17:25;;;;;;;10.27;6.00;;;;;;;;;;6147798;22;20184;-90
2022/07/29 00:20:30;;;;;;;11.20;6.15;;;;;;;;;;6147122;23;20223;-90
2022/07/29 00:23:35;;;;;;;13.05;5.80;;;;;;;;;;6165054;23;20172;-90
2022/07/29 00:26:40;;;;;;;9.95;5.95;;;;;;;;;;6146015;23;20172;-91
2022/07/29 00:29:47;;;;;;;12.57;5.85;;;;;;;;;;6145231;23;20196;-90
2022/07/29 00:32:52;;;;;;;10.00;5.90;;;;;;;;;;6144808;23;20176;-90
2022/07/29 00:35:57;;;;;;;8.65;5.63;;;;;;;;;;6146708;23;20168;-90
2022/07/29 00:39:01;;;;;;;9.45;5.88;;;;;;;;;;6145596;23;20238;-90
2022/07/29 00:42:07;;;;;;;7.57;5.57;;;;;;;;;;6147776;23;20192;-90
2022/07/29 00:45:16;;;;;;;12.25;5.88;;;;;;;;;;6146553;22;20498;-90
2022/07/29 00:48:22;;;;;;;10.80;6.28;;;;;;;;;;6149889;23;20233;-89
2022/07/29 00:51:28;;;;;;;10.57;6.40;;;;;;;;;;6148468;23;20171;-89
2022/07/29 00:54:33;;;;;;;11.52;5.88;;;;;;;;;;6147080;23;20177;-90
2022/07/29 00:57:42;;;;;;;9.10;5.65;;;;;;;;;;6147922;23;20173;-91
2022/07/29 01:00:48;;;;;;;7.80;5.93;;;;;;;;;;6146252;23;20193;-90
2022/07/29 01:03:53;;;;;;;11.15;6.05;;;;;;;;;;6145879;23;20592;-90
2022/07/29 01:06:59;;;;;;;8.15;5.45;;;;;;;;;;6146812;22;20169;-91
2022/07/29 01:10:05;;;;;;;7.97;5.78;;;;;;;;;;6145777;23;20271;-91
2022/07/29 01:13:10;;;;;;;10.30;5.93;;;;;;;;;;6146071;23;20172;-91
2022/07/29 01:16:22;;;;;;;9.90;5.68;;;;;;;;;;6146674;23;20447;-90
2022/07/29 01:19:35;;;;;;;9.27;6.03;;;;;;;;;;6146146;22;20219;-92
2022/07/29 01:22:56;;;;;;;8.52;5.95;;;;;;;;;;6145799;23;20192;-91
2022/07/29 01:26:30;;;;;;;11.15;6.07;;;;;;;;;;6147190;23;20246;-91
2022/07/29 01:29:38;;;;;;;9.32;6.15;;;;;;;;;;6112478;23;20199;-91
2022/07/29 01:32:44;;;;;;;10.05;6.60;;;;;;;;;;6145956;23;20174;-88
2022/07/29 01:35:49;;;;;;;10.73;6.82;;;;;;;;;;6146178;23;20157;-90
2022/07/29 01:38:59;;;;;;;19.10;7.40;;;;;;;;;;6145141;23;20172;-87
2022/07/29 01:42:11;;;;;;;29.08;9.63;;;;;;;;;;6142968;23;20245;-88
2022/07/29 01:45:20;;;;;;;15.13;8.73;;;;;;;;;;6143841;23;20250;-89
2022/07/29 01:48:28;;;;;;;19.67;8.52;;;;;;;;;;6141996;23;20258;-89
2022/07/29 01:51:37;;;;;;;16.65;9.73;;;;;;;;;;6142871;22;20177;-88
2022/07/29 01:54:45;;;;;;;18.33;10.05;;;;;;;;;;6143801;23;20242;-88
2022/07/29 01:57:51;;;;;;;15.57;10.57;;;;;;;;;;6144208;23;20172;-88
2022/07/29 02:00:58;;;;;;;15.60;10.13;;;;;;;;;;6142981;23;20694;-90
2022/07/29 02:04:04;;;;;;;19.02;9.88;;;;;;;;;;6142415;23;20173;-92
2022/07/29 02:07:12;;;;;;;20.23;10.93;;;;;;;;;;6142888;23;20168;-90
2022/07/29 02:10:19;;;;;;;15.82;10.80;;;;;;;;;;6143639;23;20177;-90
2022/07/29 02:13:25;;;;;;;15.40;10.52;;;;;;;;;;6143967;23;20207;-92
2022/07/29 02:16:32;;;;;;;17.77;10.75;;;;;;;;;;6143305;23;20172;-90
2022/07/29 02:19:39;;;;;;;16.40;10.73;;;;;;;;;;6144802;23;20172;-89
2022/07/29 02:22:45;;;;;;;15.82;10.57;;;;;;;;;;6146107;23;20169;-89
2022/07/29 02:25:51;;;;;;;16.25;8.88;;;;;;;;;;6146516;22;20215;-89
2022/07/29 02:28:57;;;;;;;18.13;9.52;;;;;;;;;;6144970;23;20192;-90
2022/07/29 02:32:05;;;;;;;13.25;8.93;;;;;;;;;;6146360;23;20207;-90
2022/07/29 02:35:10;;;;;;;14.57;9.10;;;;;;;;;;6145779;23;20168;-89
2022/07/29 02:41:42;;;;;;;15.95;10.25;;;;;;;;;;6147648;22;20153;-91
2022/07/29 02:44:47;;;;;;;16.10;9.98;;;;;;;;;;6147243;23;20168;-89
2022/07/29 02:47:55;;;;;;;14.95;9.00;;;;;;;;;;6146779;23;20215;-90
2022/07/29 02:51:05;;;;;;;12.65;8.95;;;;;;;;;;6147121;23;20207;-88
2022/07/29 02:54:12;;;;;;;16.95;9.27;;;;;;;;;;6146486;23;20157;-88
2022/07/29 02:57:23;;;;;;;19.83;9.90;;;;;;;;;;6147216;23;20152;-89
2022/07/29 03:00:29;;;;;;;17.08;9.45;;;;;;;;;;6147959;23;20205;-90
2022/07/29 03:03:37;;;;;;;12.40;8.93;;;;;;;;;;6147648;23;20308;-89
2022/07/29 03:06:51;;;;;;;15.65;9.10;;;;;;;;;;6147296;22;20667;-90
2022/07/29 03:09:56;;;;;;;15.48;8.90;;;;;;;;;;6146350;22;20156;-90
2022/07/29 03:13:02;;;;;;;13.82;8.95;;;;;;;;;;6147062;23;20248;-87
2022/07/29 03:16:07;;;;;;;14.65;9.13;;;;;;;;;;6147539;23;20176;-91
2022/07/29 03:19:13;;;;;;;18.30;8.82;;;;;;;;;;6147068;23;20698;-89
2022/07/29 03:22:18;;;;;;;19.27;9.35;;;;;;;;;;6146625;23;20171;-89
2022/07/29 03:25:23;;;;;;;13.02;9.55;;;;;;;;;;6147967;23;20200;-91
2022/07/29 03:28:28;;;;;;;14.95;9.02;;;;;;;;;;6145451;23;20658;-89
2022/07/29 03:31:33;;;;;;;15.35;9.07;;;;;;;;;;6148123;23;20192;-90
2022/07/29 03:34:40;;;;;;;14.68;8.98;;;;;;;;;;6148430;23;20173;-89
2022/07/29 03:37:45;;;;;;;14.27;8.85;;;;;;;;;;6147888;23;20176;-89
2022/07/29 03:40:51;;;;;;;15.05;9.70;;;;;;;;;;6149809;22;20232;-90
2022/07/29 03:44:00;;;;;;;15.50;9.60;;;;;;;;;;6149874;23;20502;-91
2022/07/29 03:47:08;;;;;;;14.68;9.35;;;;;;;;;;6147566;23;20156;-90
2022/07/29 03:50:15;;;;;;;14.85;8.70;;;;;;;;;;6147911;23;20596;-90
2022/07/29 03:53:21;;;;;;;15.13;9.15;;;;;;;;;;6148655;23;20243;-90
2022/07/29 03:56:26;;;;;;;16.98;9.65;;;;;;;;;;6148311;23;20211;-89
2022/07/29 03:59:34;;;;;;;16.27;8.73;;;;;;;;;;6148340;23;20302;-90
2022/07/29 04:02:49;;;;;;;13.43;9.05;;;;;;;;;;6147770;23;20207;-90
2022/07/29 04:06:06;;;;;;;13.52;9.32;;;;;;;;;;6147724;23;20234;-89
2022/07/29 04:09:13;;;;;;;14.27;9.10;;;;;;;;;;6147604;23;20172;-88
2022/07/29 04:12:18;;;;;;;13.68;8.40;;;;;;;;;;6148541;23;20635;-90
2022/07/29 04:15:24;;;;;;;12.65;8.63;;;;;;;;;;6147121;23;20221;-90
2022/07/29 04:18:29;;;;;;;16.00;9.05;;;;;;;;;;6166219;23;20227;-90
2022/07/29 04:21:39;;;;;;;15.63;9.18;;;;;;;;;;6145056;23;20176;-90
2022/07/29 04:24:45;;;;;;;15.40;9.70;;;;;;;;;;6147292;23;20176;-89
2022/07/29 04:28:02;;;;;;;15.25;9.27;;;;;;;;;;6146321;23;20192;-89
2022/07/29 04:31:08;;;;;;;17.02;9.35;;;;;;;;;;6149197;23;20173;-89
2022/07/29 04:34:14;;;;;;;14.27;9.00;;;;;;;;;;6148605;23;20173;-90
2022/07/29 04:37:23;;;;;;;12.55;8.27;;;;;;;;;;6147441;23;20195;-90
2022/07/29 04:40:30;;;;;;;15.25;8.40;;;;;;;;;;6150168;23;20253;-91
2022/07/29 04:43:43;;;;;;;15.20;8.68;;;;;;;;;;6148235;22;20227;-92
2022/07/29 04:46:52;;;;;;;11.45;7.63;;;;;;;;;;6151045;23;20212;-91
2022/07/29 04:49:57;;;;;;;13.73;8.07;;;;;;;;;;6150763;22;20169;-91
2022/07/29 04:53:03;;;;;;;13.20;8.77;;;;;;;;;;6148025;23;20528;-89
2022/07/29 04:56:09;;;;;;;11.98;8.70;;;;;;;;;;6149369;23;20176;-91
2022/07/29 04:59:14;;;;;;;11.65;8.40;;;;;;;;;;6147811;23;21037;-91
2022/07/29 05:02:20;;;;;;;12.57;8.65;;;;;;;;;;6149261;23;20168;-90
2022/07/29 05:05:25;;;;;;;13.18;8.18;;;;;;;;;;6150816;23;20188;-89
2022/07/29 05:08:33;;;;;;;11.20;7.38;;;;;;;;;;6151944;23;20180;-89
2022/07/29 05:11:41;;;;;;;16.13;8.13;;;;;;;;;;6152091;23;20229;-90
2022/07/29 05:14:46;;;;;;;16.48;8.93;;;;;;;;;;6149286;23;20165;-90
2022/07/29 05:17:51;;;;;;;12.32;8.35;;;;;;;;;;6148981;23;20177;-89
2022/07/29 05:20:57;;;;;;;13.93;8.13;;;;;;;;;;6150612;23;20187;-90
2022/07/29 05:24:04;;;;;;;10.85;8.05;;;;;;;;;;6147958;23;20172;-89
2022/07/29 05:27:13;;;;;;;14.95;8.45;;;;;;;;;;6147088;22;20173;-90
2022/07/29 05:30:18;;;;;;;15.00;8.18;;;;;;;;;;6149085;23;20212;-89
2022/07/29 05:33:23;;;;;;;12.85;8.23;;;;;;;;;;6149562;22;20196;-89
2022/07/29 05:36:29;;;;;;;11.77;7.43;;;;;;;;;;6148693;23;20268;-90
2022/07/29 05:39:35;;;;;;;14.23;6.90;;;;;;;;;;6147582;23;20164;-89
2022/07/29 05:42:42;;;;;;;11.38;7.35;;;;;;;;;;6149992;23;20195;-89
2022/07/29 05:46:20;;;;;;;13.02;7.78;;;;;;;;;;6165530;22;20168;-92
2022/07/29 05:49:26;;;;;;;14.02;7.97;;;;;;;;;;6148134;23;20225;-88
2022/07/29 05:52:31;;;;;;;16.05;7.95;;;;;;;;;;6147310;23;20213;-91
2022/07/29 05:55:38;;;;;;;12.60;7.90;;;;;;;;;;6150891;23;20169;-90
2022/07/29 05:58:45;;;;;;;15.05;8.27;;;;;;;;;;6147588;23;20532;-89
2022/07/29 06:01:51;;;;;;;11.38;8.15;;;;;;;;;;6150391;23;20188;-89
2022/07/29 06:04:56;;;;;;;12.85;8.48;;;;;;;;;;6148735;22;20163;-91
2022/07/29 06:08:01;;;;;;;18.40;8.30;;;;;;;;;;6148397;22;20173;-89
2022/07/29 06:11:09;;;;;;;12.05;8.20;;;;;;;;;;6148487;23;20215;-89
2022/07/29 06:14:14;;;;;;;16.83;8.75;;;;;;;;;;6149611;23;20191;-90
2022/07/29 06:17:19;;;;;;;13.85;7.63;;;;;;;;;;6147739;23;20180;-90
2022/07/29 08:42:44;;;;;;;8.07;3.40;;;;;;;;;;6164238;22;20206;-91
2022/07/29 08:45:52;;;;;;;9.57;3.70;;;;;;;;;;6275435;22;20200;-90
2022/07/29 08:48:59;;;;;;;8.70;3.25;;;;;;;;;;6276708;22;20212;-92
2022/07/29 08:52:04;;;;;;;6.30;3.63;;;;;;;;;;6276963;22;20221;-89
2022/07/29 08:55:11;;;;;;;9.75;4.45;;;;;;;;;;6276233;22;20169;-92
2022/07/29 08:58:31;;;;;;;4.72;3.00;;;;;;;;;;6275412;22;20169;-91
2022/07/29 09:01:42;;;;;;;4.63;3.13;;;;;;;;;;6279095;22;20220;-91
2022/07/29 09:04:48;;;;;;;5.32;2.80;;;;;;;;;;6277959;22;20177;-91
2022/07/29 09:07:54;;;;;;;6.53;3.20;;;;;;;;;;6278652;22;20173;-92
2022/07/29 09:11:00;;;;;;;6.40;2.60;;;;;;;;;;6274258;22;20625;-90
2022/07/29 09:14:06;;;;;;;4.43;2.63;;;;;;;;;;6275418;22;20173;-90
2022/07/29 09:17:13;;;;;;;4.63;2.60;;;;;;;;;;6274464;22;20221;-93
2022/07/29 09:20:21;;;;;;;3.63;3.00;;;;;;;;;;6275577;22;20164;-91
2022/07/29 09:23:29;;;;;;;3.80;3.00;;;;;;;;;;6278625;22;20193;-90
2022/07/29 09:26:36;;;;;;;4.28;2.72;;;;;;;;;;6276749;22;20161;-93
2022/07/29 09:29:42;;;;;;;7.68;2.97;;;;;;;;;;6277290;22;20266;-92
2022/07/29 09:33:10;;;;;;;8.38;2.80;;;;;;;;;;6276588;22;20161;-92
2022/07/29 09:36:20;;;;;;;4.82;2.80;;;;;;;;;;6277461;22;20544;-89
2022/07/29 09:39:33;;;;;;;7.68;2.75;;;;;;;;;;6281866;22;20185;-92
2022/07/29 09:43:04;;;;;;;4.57;2.78;;;;;;;;;;6283342;22;20212;-92
2022/07/29 09:46:14;;;;;;;3.45;2.25;;;;;;;;;;6278760;22;20174;-90
2022/07/29 09:52:53;;;;;;;4.13;2.75;;;;;;;;;;6283576;22;20180;-91
2022/07/29 09:56:14;;;;;;;4.07;2.67;;;;;;;;;;6284853;22;20220;-91
2022/07/29 09:59:26;;;;;;;5.47;2.63;;;;;;;;;;6282956;22;20164;-89
2022/07/29 10:14:45;;;;;;;5.60;2.65;;;;;;;;;;6254529;22;20584;-90
2022/07/29 10:21:19;;;;;;;6.57;2.40;;;;;;;;;;6283756;22;20169;-89
2022/07/29 10:34:45;;;;;;;3.90;2.40;;;;;;;;;;6281324;22;20232;-90
2022/07/29 10:38:08;;;;;;;4.47;2.45;;;;;;;;;;6271283;22;20165;-89
2022/07/29 10:41:28;;;;;;;3.58;2.40;;;;;;;;;;6268569;22;20166;-90
2022/07/29 10:45:04;;;;;;;2.53;2.05;;;;;;;;;;6271392;22;20244;-91
2022/07/29 10:48:11;;;;;;;3.95;2.00;;;;;;;;;;6269558;22;20169;-91
2022/07/29 10:51:16;;;;;;;6.40;2.45;;;;;;;;;;6269080;22;20175;-92
2022/07/29 10:54:37;;;;;;;3.97;2.03;;;;;;;;;;6266468;22;20219;-90
2022/07/29 10:58:03;;;;;;;3.53;2.35;;;;;;;;;;6269515;22;20177;-91
2022/07/29 11:01:29;;;;;;;5.10;2.22;;;;;;;;;;6271456;22;20173;-90
2022/07/29 11:04:53;;;;;;;3.13;2.50;;;;;;;;;;6273236;22;20189;-90
2022/07/29 11:08:13;;;;;;;3.45;2.22;;;;;;;;;;6274329;22;20192;-91
2022/07/29 11:11:35;;;;;;;3.20;2.28;;;;;;;;;;6273591;22;20165;-89
2022/07/29 11:18:19;;;;;;;6.05;2.47;;;;;;;;;;6272595;22;20152;-89
2022/07/29 11:21:37;;;;;;;3.15;2.13;;;;;;;;;;6269786;22;20269;-89
2022/07/29 11:24:42;;;;;;;3.20;2.22;;;;;;;;;;6270019;22;20328;-90
2022/07/29 11:27:47;;;;;;;3.25;2.13;;;;;;;;;;6272006;22;20177;-90
2022/07/29 11:30:55;;;;;;;3.38;2.20;;;;;;;;;;6270309;22;20264;-91
2022/07/29 11:34:17;;;;;;;2.85;2.25;;;;;;;;;;6273711;22;20176;-90
2022/07/29 11:37:23;;;;;;;3.83;2.42;;;;;;;;;;6272525;22;20173;-90
2022/07/29 11:40:29;;;;;;;4.80;2.50;;;;;;;;;;6270441;22;20169;-91
2022/07/29 11:43:47;;;;;;;8.10;2.53;;;;;;;;;;6271097;22;20173;-89
2022/07/29 11:47:20;;;;;;;7.45;2.40;;;;;;;;;;6270413;22;20204;-91
2022/07/29 11:50:31;;;;;;;3.33;2.40;;;;;;;;;;6269010;22;20166;-89
2022/07/29 11:53:37;;;;;;;5.00;2.67;;;;;;;;;;6265948;22;20593;-90
2022/07/29 11:56:45;;;;;;;9.63;2.35;;;;;;;;;;6270387;22;20181;-90
2022/07/29 11:59:50;;;;;;;4.93;2.40;;;;;;;;;;6267471;22;20192;-89
2022/07/29 12:02:56;;;;;;;5.50;2.20;;;;;;;;;;6271096;22;20164;-90
2022/07/29 12:06:02;;;;;;;3.53;2.28;;;;;;;;;;6271087;22;20196;-91
2022/07/29 12:09:08;;;;;;;3.30;2.20;;;;;;;;;;6271013;22;20612;-91
2022/07/29 12:12:17;;;;;;;3.55;2.30;;;;;;;;;;6269421;22;20169;-91
2022/07/29 12:15:23;;;;;;;5.35;2.50;;;;;;;;;;6269952;22;20205;-90
2022/07/29 12:18:29;;;;;;;7.05;2.40;;;;;;;;;;6268395;22;20156;-89
2022/07/29 12:21:46;;;;;;;9.93;2.20;;;;;;;;;;6269048;22;20608;-90
2022/07/29 12:24:52;;;;;;;2.30;2.08;;;;;;;;;;6269316;22;20189;-90
2022/07/29 12:28:00;;;;;;;2.75;2.03;;;;;;;;;;6270874;22;20169;-90
2022/07/29 12:31:06;;;;;;;3.40;2.33;;;;;;;;;;6268033;22;20153;-90
2022/07/29 12:34:12;;;;;;;3.13;2.35;;;;;;;;;;6269051;22;20598;-90
2022/07/29 12:37:24;;;;;;;5.85;2.25;;;;;;;;;;6271400;22;20192;-90
2022/07/29 12:40:29;;;;;;;3.30;2.20;;;;;;;;;;6267993;22;20237;-90
2022/07/29 12:43:34;;;;;;;3.38;2.40;;;;;;;;;;6269143;22;20208;-91
2022/07/29 12:46:39;;;;;;;3.65;2.05;;;;;;;;;;6268631;22;20244;-88
2022/07/29 12:49:45;;;;;;;2.92;2.13;;;;;;;;;;6268594;22;20184;-89
2022/07/29 12:52:51;;;;;;;3.55;1.75;;;;;;;;;;6272147;22;20189;-91
2022/07/29 12:55:59;;;;;;;4.60;1.83;;;;;;;;;;6269706;22;20221;-89
2022/07/29 12:59:12;;;;;;;4.97;2.38;;;;;;;;;;6268707;22;20708;-88
2022/07/29 13:02:22;;;;;;;5.95;2.40;;;;;;;;;;6269684;22;20607;-90
2022/07/29 13:05:40;;;;;;;4.13;2.28;;;;;;;;;;6268954;22;20165;-90
2022/07/29 13:09:00;;;;;;;2.50;2.00;;;;;;;;;;6269286;22;20173;-90
2022/07/29 13:12:08;;;;;;;9.27;2.20;;;;;;;;;;6268891;22;20192;-92
2022/07/29 13:15:21;;;;;;;3.03;2.00;;;;;;;;;;6270884;22;20198;-92
2022/07/29 13:18:29;;;;;;;2.20;1.70;;;;;;;;;;6269423;22;20188;-92
2022/07/29 13:21:38;;;;;;;4.40;2.22;;;;;;;;;;6270857;22;20169;-91
2022/07/29 13:24:50;;;;;;;7.20;2.30;;;;;;;;;;6272618;22;20262;-91
2022/07/29 13:27:55;;;;;;;3.10;1.88;;;;;;;;;;6273426;22;20174;-91
2022/07/29 13:31:01;;;;;;;3.20;2.00;;;;;;;;;;6272383;22;20237;-90
2022/07/29 13:34:10;;;;;;;5.25;2.20;;;;;;;;;;6273971;22;20169;-89
2022/07/29 13:37:16;;;;;;;5.25;2.67;;;;;;;;;;6269196;22;20170;-89
2022/07/29 13:40:23;;;;;;;3.03;2.05;;;;;;;;;;6268116;22;20189;-90
2022/07/29 13:43:29;;;;;;;3.33;2.10;;;;;;;;;;6271340;22;20192;-91
2022/07/29 13:46:34;;;;;;;2.50;1.98;;;;;;;;;;6271132;22;20495;-90
2022/07/29 13:49:42;;;;;;;3.72;1.92;;;;;;;;;;6269304;22;20166;-91
2022/07/29 13:52:50;;;;;;;5.88;2.03;;;;;;;;;;6270220;22;20259;-89
2022/07/29 13:55:56;;;;;;;2.67;1.98;;;;;;;;;;6269307;22;20228;-90
2022/07/29 13:59:01;;;;;;;2.45;2.03;;;;;;;;;;6268267;22;20625;-89
2022/07/29 14:02:15;;;;;;;3.78;2.22;;;;;;;;;;6269707;22;20320;-91
2022/07/29 14:05:20;;;;;;;6.95;2.10;;;;;;;;;;6267763;22;20188;-91
2022/07/29 14:08:28;;;;;;;3.80;2.20;;;;;;;;;;6268350;22;20168;-89
2022/07/29 14:11:35;;;;;;;2.65;2.35;;;;;;;;;;6267773;22;20169;-89
2022/07/29 14:14:41;;;;;;;3.03;2.28;;;;;;;;;;6268381;22;20165;-90
2022/07/29 14:17:46;;;;;;;4.07;2.60;;;;;;;;;;6269707;22;20612;-89
2022/07/29 14:20:51;;;;;;;4.80;2.30;;;;;;;;;;6265609;22;20168;-90
2022/07/29 14:23:57;;;;;;;3.97;2.33;;;;;;;;;;6267652;22;20188;-90
2022/07/29 14:27:04;;;;;;;3.15;2.08;;;;;;;;;;6270325;22;20177;-90
2022/07/29 14:30:10;;;;;;;4.97;2.00;;;;;;;;;;6270703;22;20162;-90
2022/07/29 14:33:16;;;;;;;3.17;2.30;;;;;;;;;;6269675;22;20169;-91
2022/07/29 14:36:21;;;;;;;5.07;2.72;;;;;;;;;;6273640;22;20169;-90
2022/07/29 14:39:26;;;;;;;3.35;2.50;;;;;;;;;;6274258;22;20169;-90
2022/07/29 14:42:32;;;;;;;5.90;2.83;;;;;;;;;;6273612;22;20199;-90
2022/07/29 14:45:37;;;;;;;3.13;2.03;;;;;;;;;;6274161;22;20236;-92
2022/07/29 14:48:43;;;;;;;2.72;2.10;;;;;;;;;;6274488;22;20191;-91
2022/07/29 14:51:48;;;;;;;3.13;2.30;;;;;;;;;;6272911;22;20255;-90
2022/07/29 14:54:54;;;;;;;4.60;2.40;;;;;;;;;;6273177;22;20162;-90
2022/07/29 14:58:01;;;;;;;2.65;2.20;;;;;;;;;;6274572;22;20173;-90
2022/07/29 15:01:11;;;;;;;4.10;2.00;;;;;;;;;;6276030;22;20185;-90
2022/07/29 15:04:22;;;;;;;4.00;2.38;;;;;;;;;;6276434;22;20224;-89
2022/07/29 15:07:32;;;;;;;13.48;2.42;;;;;;;;;;6277909;22;20181;-89
2022/07/29 15:10:37;;;;;;;3.40;2.20;;;;;;;;;;6279498;22;20200;-90
2022/07/29 15:13:43;;;;;;;2.80;2.40;;;;;;;;;;6275874;22;20168;-90
2022/07/29 15:16:49;;;;;;;3.33;2.80;;;;;;;;;;6275238;22;20192;-90
2022/07/29 15:19:55;;;;;;;7.43;2.63;;;;;;;;;;6276393;22;20212;-91
2022/07/29 15:23:00;;;;;;;3.05;2.40;;;;;;;;;;6274458;22;20193;-91
2022/07/29 15:26:05;;;;;;;5.10;2.47;;;;;;;;;;6272515;22;20166;-90
2022/07/29 15:29:13;;;;;;;6.45;2.70;;;;;;;;;;6272376;22;20193;-91
2022/07/29 15:32:18;;;;;;;6.68;2.60;;;;;;;;;;6272082;22;20165;-91
2022/07/29 15:35:23;;;;;;;4.93;2.97;;;;;;;;;;6274547;22;20169;-90
2022/07/29 15:38:28;;;;;;;4.10;2.25;;;;;;;;;;6273068;22;20345;-91
2022/07/29 15:41:34;;;;;;;5.57;2.47;;;;;;;;;;6273539;22;20201;-90
2022/07/29 15:44:42;;;;;;;10.15;3.70;;;;;;;;;;6270479;22;20601;-89
2022/07/29 15:47:49;;;;;;;5.60;2.90;;;;;;;;;;6272142;22;20288;-89
2022/07/29 15:50:55;;;;;;;7.45;2.53;;;;;;;;;;6270975;22;20174;-90
2022/07/29 15:54:02;;;;;;;2.80;2.38;;;;;;;;;;6272702;22;20197;-91
2022/07/29 15:57:08;;;;;;;8.27;2.33;;;;;;;;;;6272741;22;20229;-90
2022/07/29 16:00:16;;;;;;;4.60;2.72;;;;;;;;;;6272080;22;20161;-89
2022/07/29 16:03:22;;;;;;;6.22;2.25;;;;;;;;;;6271031;22;20285;-89
2022/07/29 16:06:30;;;;;;;5.63;3.10;;;;;;;;;;6272241;22;20229;-88
2022/07/29 16:09:36;;;;;;;8.00;2.55;;;;;;;;;;6270910;22;20169;-90
2022/07/29 16:12:41;;;;;;;7.93;2.90;;;;;;;;;;6270155;22;20185;-90
2022/07/29 16:15:48;;;;;;;10.35;3.28;;;;;;;;;;6269668;22;20281;-89
2022/07/29 16:18:53;;;;;;;23.98;10.07;;;;;;;;;;6269917;22;20203;-89
2022/07/29 16:21:58;;;;;;;13.00;5.97;;;;;;;;;;6287801;22;20181;-90
2022/07/29 16:25:03;;;;;;;41.35;17.98;;;;;;;;;;6276059;22;20189;-89
2022/07/29 16:28:08;;;;;;;13.43;7.15;;;;;;;;;;6292627;22;20665;-89
2022/07/29 16:31:16;;;;;;;22.02;9.57;;;;;;;;;;6269176;22;20165;-88
2022/07/29 16:34:22;;;;;;;13.82;6.07;;;;;;;;;;6274819;22;20237;-90
2022/07/29 18:29:37;;;;;;;6.27;3.97;;;;;;;;;;6209710;22;1341715;-90
2022/07/29 18:32:42;;;;;;;6.00;3.83;;;;;;;;;;6159578;23;20213;-89
2022/07/29 18:35:53;;;;;;;5.25;3.30;;;;;;;;;;6158080;23;20179;-89
2022/07/29 18:38:59;;;;;;;7.15;2.70;;;;;;;;;;6157417;23;20165;-90
2022/07/29 18:42:05;;;;;;;5.80;2.30;;;;;;;;;;6157186;23;20173;-89
2022/07/29 18:45:18;;;;;;;5.53;2.03;;;;;;;;;;6157284;23;20201;-89
2022/07/29 18:48:25;;;;;;;4.30;1.98;;;;;;;;;;6156815;23;20208;-90
2022/07/29 18:51:33;;;;;;;4.55;2.33;;;;;;;;;;6157656;23;20172;-89
2022/07/29 18:54:41;;;;;;;3.58;2.10;;;;;;;;;;6157485;23;20193;-89
2022/07/29 18:57:46;;;;;;;3.47;1.75;;;;;;;;;;6157385;23;20611;-90
2022/07/29 19:00:54;;;;;;;6.07;2.42;;;;;;;;;;6155997;23;20193;-89
2022/07/29 19:42:53;;;;;;;34.92;15.95;;;;;;;;;;6213485;23;20219;-90
2022/07/29 19:45:58;;;;;;;3.13;2.00;;;;;;;;;;6216439;23;20175;-89
2022/07/29 19:52:29;;;;;;;5.13;1.98;;;;;;;;;;6235581;23;20202;-89
2022/07/29 19:55:36;;;;;;;8.27;2.22;;;;;;;;;;6232435;23;20191;-90
2022/07/29 19:58:49;;;;;;;4.40;2.08;;;;;;;;;;6234530;23;20167;-88
2022/07/29 20:01:54;;;;;;;4.03;2.15;;;;;;;;;;6234875;23;20207;-89
2022/07/29 20:05:00;;;;;;;4.18;1.80;;;;;;;;;;6233340;23;20159;-88
2022/07/29 20:08:06;;;;;;;3.92;1.60;;;;;;;;;;6214967;23;20194;-90
2022/07/29 20:11:13;;;;;;;4.47;1.50;;;;;;;;;;6232401;23;20306;-90
2022/07/29 20:14:21;;;;;;;2.55;1.65;;;;;;;;;;6232950;23;20156;-90
2022/07/29 20:17:27;;;;;;;3.75;1.98;;;;;;;;;;6232098;23;20194;-90
2022/07/29 20:20:34;;;;;;;4.88;2.30;;;;;;;;;;6217179;23;20171;-89
2022/07/29 20:23:40;;;;;;;4.03;1.83;;;;;;;;;;6232645;23;20178;-90
2022/07/29 20:26:48;;;;;;;5.40;2.10;;;;;;;;;;6233355;23;20182;-90
2022/07/29 20:29:55;;;;;;;3.10;1.55;;;;;;;;;;6233706;23;20170;-90
2022/07/29 20:33:00;;;;;;;4.15;1.63;;;;;;;;;;6215485;23;20178;-88
2022/07/29 20:36:06;;;;;;;3.25;1.65;;;;;;;;;;6233004;23;20170;-87
2022/07/29 20:39:12;;;;;;;4.35;1.70;;;;;;;;;;6232581;23;20236;-90
2022/07/29 20:42:21;;;;;;;3.88;1.65;;;;;;;;;;6217506;23;20206;-89
2022/07/29 20:45:33;;;;;;;4.40;1.90;;;;;;;;;;6235902;23;20155;-89
